EDHK/KEL METAR and TAF weather

Enter ICAO airport designator
Station Type Date Time Source
EDHK METAR 2021/05/12 00:20 UTC NOAA

EDHK 120020Z AUTO 31007KT //// R26/P2000N // ///////// 10/10 Q1006


Station Type Date Time Source
EDHK Decoded METAR 2021/05/12 00:20 UTC NOAA

Kiel / Holtenau Civilian, Germany (EDHK) 54-23N 010-10E
May 11, 2021 - 08:20 PM EDT / 2021.05.12 0020 UTC
Wind: from the NW (310 degrees) at 8 MPH (7 KT):0
Temperature: 50 F (10 C)
Dew Point: 50 F (10 C)
Relative Humidity: 100%
Pressure (altimeter): 29.71 in. Hg (1006 hPa)
ob: EDHK 120020Z AUTO 31007KT //// R26/P2000N // ///////// 10/10 Q1006
cycle: 0

Station Type Date Time Source
EDHK TAF 2013/08/11 06:39 UTC NOAA

TAF EDHK 110633Z 1106/1118 24005KT 9999 SCT030
BECMG 1106/1109 25010KT
TEMPO 1106/1118 27015G25KT 4500 SHRA BKN012CB

Example: see airport list